Martinsburg, WV (25401)

11:35 AM EST on November 27, 2014 (GMT -0500)
Lost Road | Change Station
CLOSE
Current Station
Personal Weather Station
Location: Martinsburg, WV
Elevation: 540 ft
Nearby Weather Stations

Elev 540 ft 39.47 °N, 78.01 °W | Updated 8 seconds ago

Overcast
Overcast
37.3 °F
Feels Like 37 °F
N
0.0
Wind Variable Wind from NNW
Gusts 1.0 mph

Today
High -- | Low -- °F
--% Chance of Precip.
Yesterday
High -- | Low -- °F
Precip. -- in
7:08 AM 4:49 PM
Waxing Crescent, 31% visible
Pressure 30.07 in
Visibility 9.0 miles
Clouds Overcast 6000 ft
Windchill 37 °F
Dew Point 35 °F
Humidity 92%
Rainfall 0.09 in
Snow Depth Not available.
UV 1 out of 12
Pollen .10 out of 12
Air Quality Not available.
Flu Activity Not available.
METAR KMRB 271553Z 30009KT 9SM OVC060 05/M02 A3006 RMK AO2 SLP182 T00501017

More Conditions Fewer Conditions

Pressure 30.07 in
Visibility 9.0 miles
Clouds Overcast 6000 ft
Windchill 37 °F
Dew Point 35 °F
Humidity 92%
Rainfall 0.09 in
Snow Depth Not available.
UV 1 out of 12
Pollen .10 out of 12
Air Quality Not available.
Flu Activity Not available.
METAR KMRB 271553Z 30009KT 9SM OVC060 05/M02 A3006 RMK AO2 SLP182 T00501017

More Conditions Fewer Conditions

10-Day Weather Forecast

Almanac

Astronomy

Nov. 27, 2014 Rise Set
Actual Time
Civil Twilight
Nautical Twilight
Astronomical Twilight
Moon
Length of Visible Light
Length of Day
Tomorrow will be .
, % of the Moon is Illuminated

Today's Extremes

State Highs State Lows

Community

WunderPhotos

Upload Photos

1,774,035 photos uploaded!

WunderBlogs® & News

Nearby

Air Quality

  Air Quality AQ Index Pollutant
Not available.

Snow Depth

Station Depth Elevation

Earthquake Activity

City Distance Mag. Time & Date
Minimum magnitude displayed is 2.5.

Coastal Water Temperatures

Place Temperature

Nearby Weather Stations